Time;durP1;ratioP1;P1;durP2;ratioP2;P2;SDS_P1;SDS_P2;PMS_P1;PMS_P2;Temp;Humidity;BMP_temperature;BMP_pressure;BME280_temperature;BME280_humidity;BME280_pressure;Samples;Min_cycle;Max_cycle;Signal;HPM_P1;HPM_P2
2023/04/27 00:00:10;;;;;;;;;2.00;2.00;;;;;22.59;35.76;101093.16;5097376;27;45327;-80
2023/04/27 00:02:37;;;;;;;;;1.25;1.25;;;;;22.57;36.17;101095.94;5076364;27;46822;-81
2023/04/27 00:05:04;;;;;;;;;2.00;2.00;;;;;22.55;35.76;101090.69;5073869;27;45803;-82
2023/04/27 00:07:29;;;;;;;;;3.00;3.00;;;;;22.58;35.53;101097.66;5077988;28;45205;-82
2023/04/27 00:09:57;;;;;;;;;1.25;1.25;;;;;22.57;35.41;101098.59;5076711;27;45623;-81
2023/04/27 00:12:23;;;;;;;;;3.50;2.00;;;;;22.57;35.58;101095.94;5077353;28;46675;-81
2023/04/27 00:14:48;;;;;;;;;2.25;1.25;;;;;22.57;36.10;101101.25;5054014;28;52524;-82
2023/04/27 00:17:13;;;;;;;;;4.00;2.25;;;;;22.58;35.84;101094.13;5077315;27;45361;-80
2023/04/27 00:19:40;;;;;;;;;0.25;0.25;;;;;22.57;35.69;101098.59;5077912;27;65999;-79
2023/04/27 00:22:06;;;;;;;;;2.50;2.50;;;;;22.58;36.01;101094.13;5077776;27;45354;-80
2023/04/27 00:24:31;;;;;;;;;1.75;1.75;;;;;22.56;35.55;101084.41;5050119;28;45436;-79
2023/04/27 00:26:57;;;;;;;;;1.25;1.25;;;;;22.57;35.70;101087.94;5077598;27;65180;-80
2023/04/27 00:29:22;;;;;;;;;1.00;1.00;;;;;22.58;35.71;101083.47;5078518;27;66425;-78
2023/04/27 00:31:47;;;;;;;;;3.50;2.00;;;;;22.56;35.79;101080.91;5077246;28;46033;-79
2023/04/27 00:34:13;;;;;;;;;1.25;1.25;;;;;22.60;35.71;101078.88;5070150;28;64833;-80
2023/04/27 00:36:38;;;;;;;;;1.50;0.50;;;;;22.55;35.88;101074.69;5076312;27;59189;-79
2023/04/27 00:39:05;;;;;;;;;1.25;1.25;;;;;22.57;35.96;101071.94;5070173;27;72201;-80
2023/04/27 00:41:31;;;;;;;;;3.00;1.00;;;;;22.53;35.51;101067.78;5072493;27;45569;-81
2023/04/27 00:43:57;;;;;;;;;1.75;1.50;;;;;22.58;35.40;101078.13;5072243;27;46101;-80
2023/04/27 00:46:23;;;;;;;;;1.75;1.75;;;;;22.53;35.84;101068.63;5052239;28;45481;-80
2023/04/27 00:48:49;;;;;;;;;3.25;1.25;;;;;22.51;35.67;101062.56;5072725;27;45373;-80
2023/04/27 00:51:14;;;;;;;;;2.00;2.00;;;;;22.56;35.81;101071.09;5073656;27;45961;-78
2023/04/27 00:53:40;;;;;;;;;1.75;1.75;;;;;22.56;35.51;101062.25;5075148;27;68826;-78
2023/04/27 00:56:06;;;;;;;;;2.50;2.50;;;;;22.54;35.45;101061.47;5057426;28;45421;-78
2023/04/27 00:58:32;;;;;;;;;2.00;2.00;;;;;22.54;35.75;101057.00;5073386;27;45495;-78
2023/04/27 01:00:58;;;;;;;;;1.50;1.50;;;;;22.55;35.87;101058.69;5059823;28;50190;-78
2023/04/27 01:03:23;;;;;;;;;2.75;2.75;;;;;22.55;36.01;101066.69;5070103;28;45325;-78
2023/04/27 01:05:48;;;;;;;;;1.25;0.75;;;;;22.56;36.00;101062.25;5056224;28;45497;-79
2023/04/27 01:08:14;;;;;;;;;1.75;1.75;;;;;22.56;35.54;101063.06;5071922;27;45450;-80
2023/04/27 01:10:40;;;;;;;;;1.00;1.00;;;;;22.56;36.09;101062.25;5076688;27;55800;-79
2023/04/27 01:13:05;;;;;;;;;1.00;1.00;;;;;22.56;35.47;101068.41;5074642;28;45923;-80
2023/04/27 01:15:30;;;;;;;;;2.25;0.25;;;;;22.56;36.10;101060.41;5074886;27;45665;-80
2023/04/27 01:18:00;;;;;;;;;1.75;1.75;;;;;22.55;35.63;101057.84;5069696;28;65747;-79
2023/04/27 01:20:29;;;;;;;;;3.25;1.25;;;;;22.55;35.82;101064.03;5061444;28;46986;-80
2023/04/27 01:22:55;;;;;;;;;3.00;2.00;;;;;22.54;35.99;101067.69;5077765;27;45508;-81
2023/04/27 01:25:21;;;;;;;;;1.00;1.00;;;;;22.57;35.49;101071.94;5058730;28;45486;-79
2023/04/27 01:27:46;;;;;;;;;4.00;3.00;;;;;22.56;35.44;101078.25;5077201;27;45541;-79
2023/04/27 01:30:14;;;;;;;;;1.75;0.25;;;;;22.52;35.96;101069.59;5077135;27;45477;-79
2023/04/27 01:32:40;;;;;;;;;1.50;1.50;;;;;22.56;35.73;101075.56;5057928;27;45533;-79
2023/04/27 01:35:06;;;;;;;;;3.00;3.00;;;;;22.52;35.84;101063.41;5076667;27;45456;-79
2023/04/27 01:37:31;;;;;;;;;4.00;3.75;;;;;22.57;36.01;101074.59;5059186;28;45537;-80
2023/04/27 01:39:56;;;;;;;;;0.75;0.75;;;;;22.55;36.06;101065.84;5074123;27;45442;-79
2023/04/27 01:42:22;;;;;;;;;3.50;2.50;;;;;22.57;35.79;101066.59;5073873;27;59791;-82
2023/04/27 01:44:47;;;;;;;;;3.25;3.00;;;;;22.56;35.76;101059.56;5074644;27;67142;-81
2023/04/27 01:47:16;;;;;;;;;3.00;3.00;;;;;22.55;35.50;101058.69;5061489;28;45189;-82
2023/04/27 01:49:41;;;;;;;;;2.50;2.50;;;;;22.56;35.71;101056.91;5083738;27;46142;-81
2023/04/27 01:52:06;;;;;;;;;3.25;3.25;;;;;22.55;35.37;101055.19;5079307;27;45435;-81
2023/04/27 01:54:32;;;;;;;;;3.25;1.25;;;;;22.55;35.72;101050.69;5075381;27;54254;-81
2023/04/27 01:56:57;;;;;;;;;2.25;2.25;;;;;22.53;35.73;101041.94;5078380;27;45374;-81
2023/04/27 01:59:22;;;;;;;;;4.00;3.00;;;;;22.56;35.45;101051.56;5076866;27;45371;-78
2023/04/27 02:01:48;;;;;;;;;2.75;2.75;;;;;22.55;35.98;101047.19;5077890;27;52763;-79
2023/04/27 02:04:13;;;;;;;;;4.00;3.00;;;;;22.54;35.71;101041.00;5076417;27;52572;-79
2023/04/27 02:06:40;;;;;;;;;6.00;2.25;;;;;22.55;35.78;101045.34;5068297;27;45446;-78
2023/04/27 02:09:05;;;;;;;;;4.25;2.25;;;;;22.54;35.63;101046.34;5071032;27;45450;-78
2023/04/27 02:11:31;;;;;;;;;3.75;3.75;;;;;22.54;35.63;101046.34;5079606;27;45235;-78
2023/04/27 02:13:56;;;;;;;;;2.25;2.25;;;;;22.54;35.69;101049.00;5073336;27;45554;-78
2023/04/27 02:16:21;;;;;;;;;4.75;4.75;;;;;22.54;35.99;101045.47;5079537;27;47154;-79
2023/04/27 02:18:47;;;;;;;;;3.00;3.00;;;;;22.56;35.98;101046.22;5078641;27;45761;-78
2023/04/27 02:21:13;;;;;;;;;6.25;3.75;;;;;22.51;35.60;101038.56;5060620;27;45734;-80
2023/04/27 02:23:38;;;;;;;;;3.75;3.75;;;;;22.51;35.50;101030.56;5058510;28;45267;-80
2023/04/27 02:26:04;;;;;;;;;3.75;3.75;;;;;22.54;35.88;101045.47;5062164;27;45642;-80
2023/04/27 02:28:30;;;;;;;;;3.50;3.00;;;;;22.53;35.78;101049.97;5068730;27;45423;-78
2023/04/27 02:30:55;;;;;;;;;4.75;4.00;;;;;22.52;35.57;101050.94;5079703;27;45818;-79
2023/04/27 02:33:20;;;;;;;;;4.50;3.00;;;;;22.53;35.94;101046.44;5055144;27;57981;-79
2023/04/27 02:35:46;;;;;;;;;3.25;3.25;;;;;22.52;35.98;101050.94;5077342;28;46361;-80
2023/04/27 02:38:12;;;;;;;;;4.75;3.75;;;;;22.52;36.04;101053.59;5076443;27;46590;-81
2023/04/27 02:40:37;;;;;;;;;6.25;4.00;;;;;22.49;35.83;101051.16;5059429;28;45338;-81
2023/04/27 02:43:03;;;;;;;;;4.00;3.00;;;;;22.53;35.76;101054.44;5076682;28;68910;-81
2023/04/27 02:45:28;;;;;;;;;4.00;4.00;;;;;22.50;35.78;101052.00;5079074;28;45546;-81
2023/04/27 02:47:53;;;;;;;;;4.25;3.00;;;;;22.52;35.49;101053.59;5080172;27;46085;-82
2023/04/27 02:50:19;;;;;;;;;3.75;3.00;;;;;22.51;35.60;101051.88;5073508;27;45606;-82
2023/04/27 02:52:44;;;;;;;;;4.00;4.00;;;;;22.49;35.92;101048.47;5079483;27;45348;-81
2023/04/27 02:55:10;;;;;;;;;3.00;2.25;;;;;22.51;35.91;101053.72;5071611;27;45631;-80
2023/04/27 02:57:36;;;;;;;;;2.50;2.50;;;;;22.53;36.03;101052.63;5078762;27;45478;-81
2023/04/27 03:00:03;;;;;;;;;3.25;2.50;;;;;22.51;35.50;101054.56;5074416;27;47017;-82
2023/04/27 03:02:28;;;;;;;;;3.50;3.00;;;;;22.53;35.88;101057.13;5067478;28;45380;-81
2023/04/27 03:04:54;;;;;;;;;6.75;3.00;;;;;22.52;36.04;101056.28;5053710;28;49821;-81
2023/04/27 03:07:20;;;;;;;;;4.50;4.00;;;;;22.50;35.61;101052.84;5072746;27;46260;-79
2023/04/27 03:09:46;;;;;;;;;3.50;3.50;;;;;22.48;35.68;101054.75;5076580;27;46041;-79
2023/04/27 03:12:11;;;;;;;;;4.75;3.50;;;;;22.53;35.50;101054.44;5078670;28;61034;-78
2023/04/27 03:14:36;;;;;;;;;3.00;2.50;;;;;22.53;35.88;101055.28;5076759;27;60924;-78
2023/04/27 03:17:02;;;;;;;;;3.50;3.00;;;;;22.52;36.00;101055.41;5076041;27;46050;-79
2023/04/27 03:19:27;;;;;;;;;2.50;2.50;;;;;22.52;35.77;101060.72;5073330;27;46076;-78
2023/04/27 03:21:52;;;;;;;;;3.25;2.25;;;;;22.52;35.57;101056.28;5069749;27;45469;-78
2023/04/27 03:24:18;;;;;;;;;3.00;3.00;;;;;22.52;35.83;101050.94;5066344;28;71581;-78
2023/04/27 03:26:43;;;;;;;;;4.75;3.00;;;;;22.52;35.32;101061.59;5076179;27;69998;-78
2023/04/27 03:29:08;;;;;;;;;5.00;4.00;;;;;22.50;35.55;101063.50;5076159;27;45464;-78
2023/04/27 03:31:34;;;;;;;;;4.25;2.50;;;;;22.52;35.33;101060.72;5077407;27;45656;-78
2023/04/27 03:33:59;;;;;;;;;1.25;1.25;;;;;22.50;35.94;101057.31;5067623;28;61864;-77
2023/04/27 03:36:25;;;;;;;;;3.25;3.25;;;;;22.50;35.71;101060.84;5074067;27;47870;-77
2023/04/27 03:38:51;;;;;;;;;2.25;2.00;;;;;22.51;35.58;101059.88;5072605;27;45481;-78
2023/04/27 03:41:16;;;;;;;;;3.25;3.00;;;;;22.51;35.54;101057.22;5075427;27;45659;-78
2023/04/27 03:43:41;;;;;;;;;3.25;3.25;;;;;22.51;35.53;101057.22;5076383;27;68889;-77
2023/04/27 03:46:07;;;;;;;;;4.50;3.00;;;;;22.52;35.97;101058.06;5076406;27;69797;-78
2023/04/27 03:48:32;;;;;;;;;3.00;2.75;;;;;22.51;35.36;101053.72;5056812;28;45495;-78
2023/04/27 03:50:59;;;;;;;;;2.75;2.25;;;;;22.52;35.98;101064.28;5076845;27;64030;-78
2023/04/27 03:53:25;;;;;;;;;4.00;2.25;;;;;22.51;35.44;101056.38;5075680;27;45307;-78
2023/04/27 03:55:50;;;;;;;;;3.00;3.00;;;;;22.50;35.97;101057.31;5073199;27;69469;-78
2023/04/27 03:58:16;;;;;;;;;2.25;1.50;;;;;22.52;35.77;101060.72;5075691;27;72209;-78
2023/04/27 04:00:42;;;;;;;;;4.00;3.00;;;;;22.50;35.84;101049.31;5074692;27;45705;-78
2023/04/27 04:03:07;;;;;;;;;5.00;3.75;;;;;22.45;35.69;101039.00;5076396;28;45516;-78
2023/04/27 04:05:32;;;;;;;;;5.00;2.50;;;;;22.49;35.70;101052.97;5075851;28;46876;-78
2023/04/27 04:07:58;;;;;;;;;4.00;2.00;;;;;22.49;35.51;101055.63;5071662;27;69494;-79
2023/04/27 04:10:24;;;;;;;;;3.00;3.00;;;;;22.50;35.67;101055.50;5076682;27;45906;-79
2023/04/27 04:12:50;;;;;;;;;4.00;3.00;;;;;22.48;35.52;101056.59;5054910;28;45697;-79
2023/04/27 04:15:16;;;;;;;;;3.50;2.75;;;;;22.48;35.27;101056.59;5059576;28;46207;-78
2023/04/27 04:17:41;;;;;;;;;3.75;3.00;;;;;22.47;35.87;101046.88;5070388;27;45388;-77
2023/04/27 04:20:08;;;;;;;;;3.75;2.50;;;;;22.50;35.66;101052.00;5075711;27;45855;-78
2023/04/27 04:22:33;;;;;;;;;2.50;2.50;;;;;22.51;35.47;101053.72;5069792;28;45531;-78
2023/04/27 04:24:58;;;;;;;;;7.00;3.75;;;;;22.49;35.43;101059.16;5058315;28;58146;-77
2023/04/27 04:27:24;;;;;;;;;3.75;3.00;;;;;22.49;35.56;101059.16;5078267;27;45275;-77
2023/04/27 04:29:49;;;;;;;;;2.75;2.75;;;;;22.48;35.69;101054.75;5074318;27;60633;-77
2023/04/27 04:32:19;;;;;;;;;2.50;1.50;;;;;22.50;35.47;101060.00;5077397;27;45636;-80
2023/04/27 04:34:49;;;;;;;;;2.75;2.75;;;;;22.49;35.58;101066.31;5072519;27;47646;-80
2023/04/27 04:37:15;;;;;;;;;4.50;3.50;;;;;22.48;35.84;101065.44;5077587;28;45477;-81
2023/04/27 04:39:40;;;;;;;;;4.75;3.00;;;;;22.42;35.22;101049.06;5077702;27;45478;-81
2023/04/27 04:42:06;;;;;;;;;4.00;2.00;;;;;22.50;35.28;101058.16;5074544;27;66682;-79
2023/04/27 04:44:32;;;;;;;;;2.25;2.25;;;;;22.47;35.65;101049.53;5072019;27;46147;-80
2023/04/27 04:46:57;;;;;;;;;3.00;2.25;;;;;22.49;35.41;101059.16;5078323;27;45359;-80
2023/04/27 04:49:22;;;;;;;;;2.75;2.75;;;;;22.48;35.83;101052.09;5075345;27;62866;-80
2023/04/27 04:51:48;;;;;;;;;5.75;3.50;;;;;22.50;35.63;101049.31;5077007;28;45641;-80
2023/04/27 04:54:13;;;;;;;;;2.75;2.25;;;;;22.48;35.94;101046.75;5070312;28;64390;-79
2023/04/27 04:56:39;;;;;;;;;4.50;3.00;;;;;22.48;35.25;101046.75;5078678;27;45366;-81
2023/04/27 04:59:05;;;;;;;;;2.75;2.50;;;;;22.47;35.85;101049.53;5076891;27;45441;-80
2023/04/27 05:01:30;;;;;;;;;3.25;2.25;;;;;22.48;35.25;101052.09;5068086;28;46163;-79
2023/04/27 05:03:56;;;;;;;;;3.00;3.00;;;;;22.47;35.82;101049.53;5071385;27;45352;-79
2023/04/27 05:06:21;;;;;;;;;1.50;1.50;;;;;22.48;35.69;101057.44;5076391;27;69424;-80
2023/04/27 05:08:46;;;;;;;;;2.25;2.25;;;;;22.45;35.77;101052.34;5073562;27;49611;-79
2023/04/27 05:11:12;;;;;;;;;2.25;1.25;;;;;22.46;35.78;101056.69;5081848;27;67661;-80
2023/04/27 05:13:39;;;;;;;;;2.25;2.25;;;;;22.47;35.87;101050.41;5074269;27;53445;-78
2023/04/27 05:16:05;;;;;;;;;3.00;2.50;;;;;22.48;35.87;101051.25;5073610;27;45307;-80
2023/04/27 05:18:30;;;;;;;;;5.50;3.25;;;;;22.47;35.37;101049.53;5076243;27;45471;-79
2023/04/27 05:20:56;;;;;;;;;4.00;2.50;;;;;22.46;35.46;101058.53;5066057;28;45540;-80
2023/04/27 05:23:21;;;;;;;;;3.00;3.00;;;;;22.46;35.73;101062.03;5073724;28;63787;-79
2023/04/27 05:25:46;;;;;;;;;2.75;2.00;;;;;22.47;35.72;101068.22;5077471;28;46573;-80
2023/04/27 05:28:12;;;;;;;;;3.50;3.00;;;;;22.45;35.63;101055.00;5074546;27;59556;-80
2023/04/27 05:30:37;;;;;;;;;5.75;2.50;;;;;22.47;35.87;101062.88;5075713;27;45656;-78
2023/04/27 05:33:03;;;;;;;;;3.00;2.25;;;;;22.47;35.12;101062.88;5071132;28;45465;-78
2023/04/27 05:35:29;;;;;;;;;2.50;2.50;;;;;22.46;35.53;101061.19;5076630;27;45482;-78
2023/04/27 05:37:55;;;;;;;;;2.75;1.75;;;;;22.46;35.33;101062.03;5074734;28;45524;-79
2023/04/27 05:40:21;;;;;;;;;2.25;2.25;;;;;22.45;35.84;101051.47;5072669;27;45428;-80
2023/04/27 05:42:46;;;;;;;;;3.25;2.25;;;;;22.46;35.25;101048.69;5058896;27;47344;-79
2023/04/27 05:45:12;;;;;;;;;3.25;2.25;;;;;22.48;35.31;101051.25;5072338;28;46029;-79
2023/04/27 05:47:38;;;;;;;;;3.00;3.00;;;;;22.46;35.42;101045.19;5075623;28;45641;-80
2023/04/27 05:50:04;;;;;;;;;3.00;2.75;;;;;22.47;35.52;101046.88;5059639;27;46261;-80
2023/04/27 05:52:30;;;;;;;;;3.25;2.50;;;;;22.44;35.44;101042.63;5075466;28;47033;-80
2023/04/27 05:54:57;;;;;;;;;4.75;3.00;;;;;22.45;35.78;101044.34;5053799;27;45816;-79
2023/04/27 05:57:23;;;;;;;;;4.25;2.25;;;;;22.46;35.53;101043.38;5052004;28;45335;-80
2023/04/27 05:59:48;;;;;;;;;0.25;0.25;;;;;22.43;35.57;101040.06;5082402;27;45291;-79
2023/04/27 06:02:13;;;;;;;;;4.25;2.25;;;;;22.44;35.63;101039.13;5076870;27;72503;-79
2023/04/27 06:04:39;;;;;;;;;4.25;4.00;;;;;22.46;35.49;101046.03;5076861;27;45714;-79
2023/04/27 06:07:08;;;;;;;;;3.75;3.00;;;;;22.46;35.80;101047.84;5075746;27;53393;-80
2023/04/27 06:09:33;;;;;;;;;3.50;1.75;;;;;22.45;35.85;101051.47;5078501;27;45485;-80
2023/04/27 06:11:59;;;;;;;;;3.00;3.00;;;;;22.46;35.47;101053.19;5075137;27;58787;-79
2023/04/27 06:14:24;;;;;;;;;2.25;2.25;;;;;22.47;35.32;101052.22;5077630;27;45504;-78
2023/04/27 06:16:50;;;;;;;;;3.50;1.00;;;;;22.41;35.44;101036.66;5077677;27;45572;-78
2023/04/27 06:19:15;;;;;;;;;1.75;1.00;;;;;22.46;35.42;101048.69;5063965;27;45417;-81
2023/04/27 06:21:40;;;;;;;;;2.75;2.00;;;;;22.48;35.37;101052.09;5076059;27;46635;-81
2023/04/27 06:24:06;;;;;;;;;2.00;2.00;;;;;22.47;35.48;101047.75;5076803;27;63707;-80
2023/04/27 06:26:32;;;;;;;;;2.75;2.25;;;;;22.49;35.53;101053.81;5077441;27;45526;-79
2023/04/27 06:28:58;;;;;;;;;2.50;2.50;;;;;22.50;35.37;101052.00;5059275;27;45524;-79
2023/04/27 06:31:23;;;;;;;;;2.00;2.00;;;;;22.51;35.92;101049.22;5077140;27;45772;-81
2023/04/27 06:33:48;;;;;;;;;3.25;2.25;;;;;22.52;35.54;101045.59;5074212;27;45470;-80
2023/04/27 06:36:14;;;;;;;;;3.00;2.00;;;;;22.49;35.50;101039.63;5074431;28;63581;-81
2023/04/27 06:38:39;;;;;;;;;2.25;2.25;;;;;22.54;35.54;101053.47;5072612;27;45622;-81
2023/04/27 06:41:05;;;;;;;;;3.00;3.00;;;;;22.54;35.52;101049.00;5074998;27;46226;-79
2023/04/27 06:43:30;;;;;;;;;3.00;2.00;;;;;22.57;35.48;101053.25;5076064;28;45439;-84
2023/04/27 06:45:56;;;;;;;;;2.25;2.25;;;;;22.55;35.95;101057.84;5075217;27;51184;-79
2023/04/27 06:48:21;;;;;;;;;4.00;1.25;;;;;22.59;35.41;101064.66;5077631;27;45258;-78
2023/04/27 06:50:46;;;;;;;;;3.75;2.25;;;;;22.61;35.86;101069.88;5076468;27;69744;-79
2023/04/27 06:53:12;;;;;;;;;2.25;1.25;;;;;22.62;35.57;101071.59;5070864;27;45709;-78
2023/04/27 06:55:38;;;;;;;;;2.50;2.50;;;;;22.61;35.85;101068.09;5077116;27;45446;-78
2023/04/27 06:58:04;;;;;;;;;1.25;1.25;;;;;22.65;35.84;101066.06;5078355;27;45688;-78
2023/04/27 07:00:30;;;;;;;;;2.00;2.00;;;;;22.66;35.89;101068.59;5080166;27;66256;-79
2023/04/27 07:02:55;;;;;;;;;1.25;1.25;;;;;22.66;35.29;101065.91;5058712;28;45858;-77
2023/04/27 07:05:21;;;;;;;;;2.25;2.25;;;;;22.70;35.57;101069.22;5071943;27;45481;-79
2023/04/27 07:07:46;;;;;;;;;2.25;2.25;;;;;22.71;35.69;101070.94;5073219;27;45361;-78
2023/04/27 07:10:11;;;;;;;;;1.50;1.25;;;;;22.75;35.42;101072.41;5076567;27;47028;-76
2023/04/27 07:12:38;;;;;;;;;0.50;0.25;;;;;22.76;35.53;101066.09;5077262;28;68133;-84
2023/04/27 07:15:05;;;;;;;;;1.50;1.50;;;;;22.76;35.84;101058.09;5074542;27;46266;-79
2023/04/27 07:17:31;;;;;;;;;1.00;1.00;;;;;22.75;35.60;101057.25;5076525;28;45885;-75
2023/04/27 07:19:56;;;;;;;;;1.25;1.25;;;;;22.79;35.58;101062.34;5079935;27;45656;-83
2023/04/27 07:22:22;;;;;;;;;1.75;0.25;;;;;22.79;35.41;101055.22;5076936;27;69320;-78
2023/04/27 07:24:47;;;;;;;;;3.00;1.50;;;;;22.81;35.28;101047.09;5077407;27;45378;-82
2023/04/27 07:27:13;;;;;;;;;1.00;1.00;;;;;22.82;35.41;101046.13;5075576;27;65984;-78
2023/04/27 07:29:39;;;;;;;;;3.00;3.00;;;;;22.86;35.78;101044.91;5059676;28;47018;-76
2023/04/27 07:32:06;;;;;;;;;4.50;2.50;;;;;22.85;36.07;101032.56;5078331;27;45423;-78
2023/04/27 07:34:31;;;;;;;;;2.25;2.25;;;;;22.88;36.13;101045.69;5076019;27;45330;-76
2023/04/27 07:36:56;;;;;;;;;4.75;3.25;;;;;22.92;36.39;101047.16;5058313;28;45808;-75
2023/04/27 07:39:22;;;;;;;;;3.25;3.00;;;;;22.94;36.22;101051.41;5078152;27;62111;-84
2023/04/27 07:41:48;;;;;;;;;5.25;3.50;;;;;22.96;36.49;101058.44;5081775;27;45532;-75
2023/04/27 07:44:14;;;;;;;;;4.25;2.25;;;;;22.97;36.42;101053.00;5073202;27;45437;-81
2023/04/27 07:46:39;;;;;;;;;4.25;2.50;;;;;23.00;36.53;101051.91;5077594;28;45531;-80
2023/04/27 07:49:05;;;;;;;;;6.50;4.25;;;;;23.03;36.92;101060.53;5079947;27;67395;-81
2023/04/27 07:51:30;;;;;;;;;4.50;4.50;;;;;23.03;36.60;101051.69;5084033;27;45285;-79
2023/04/27 07:53:56;;;;;;;;;5.75;4.25;;;;;23.05;36.33;101053.28;5074210;27;45346;-84
2023/04/27 07:56:21;;;;;;;;;8.25;5.50;;;;;23.03;35.86;101057.88;5077835;27;71954;-75
2023/04/27 07:58:46;;;;;;;;;8.00;6.75;;;;;23.03;35.83;101052.53;5075798;27;46155;-76
2023/04/27 08:01:12;;;;;;;;;7.75;6.50;;;;;23.03;35.15;101049.88;5081150;27;45362;-75
2023/04/27 08:03:37;;;;;;;;;10.00;7.00;;;;;23.01;34.80;101042.94;5073445;27;46601;-75
2023/04/27 08:06:03;;;;;;;;;8.75;6.25;;;;;22.98;34.69;101051.19;5077859;27;74169;-75
2023/04/27 08:08:28;;;;;;;;;8.25;7.00;;;;;22.97;34.23;101052.16;5072887;28;47191;-75
2023/04/27 08:10:54;;;;;;;;;10.00;7.00;;;;;22.96;34.59;101058.44;5080211;27;45394;-82
2023/04/27 08:13:19;;;;;;;;;11.25;7.25;;;;;22.92;34.14;101071.16;5054951;28;45963;-71
2023/04/27 08:15:45;;;;;;;;;7.50;6.50;;;;;22.89;34.29;101064.22;5080894;27;45667;-79
2023/04/27 08:18:10;;;;;;;;;5.25;5.25;;;;;22.87;33.96;101063.50;5065635;28;45244;-75
2023/04/27 08:20:35;;;;;;;;;6.75;5.75;;;;;22.82;34.11;101060.31;5077586;27;58947;-76
2023/04/27 08:23:01;;;;;;;;;6.50;6.50;;;;;22.85;33.96;101068.09;5078829;27;67592;-76
2023/04/27 08:25:26;;;;;;;;;10.00;6.25;;;;;22.86;33.40;101060.94;5069787;27;45515;-80
2023/04/27 08:27:51;;;;;;;;;11.25;6.00;;;;;22.85;33.80;101061.91;5062600;28;47103;-80
2023/04/27 08:30:17;;;;;;;;;7.75;5.25;;;;;22.85;33.74;101054.75;5086216;27;61617;-74
2023/04/27 08:32:42;;;;;;;;;7.50;7.25;;;;;22.85;32.81;101040.56;5079277;27;58797;-87
2023/04/27 08:35:08;;;;;;;;;8.00;6.25;;;;;22.84;33.45;101036.19;5075629;28;45450;-77
2023/04/27 08:37:33;;;;;;;;;9.50;4.25;;;;;22.84;34.10;101041.53;5084980;27;45398;-78
2023/04/27 08:39:59;;;;;;;;;6.25;3.25;;;;;22.84;34.00;101037.06;5084122;27;67722;-76
2023/04/27 08:42:24;;;;;;;;;5.25;5.00;;;;;22.85;33.82;101027.22;5068004;27;45504;-74
2023/04/27 08:44:50;;;;;;;;;4.75;4.00;;;;;22.90;34.11;101035.75;5069997;28;45551;-86
2023/04/27 08:47:15;;;;;;;;;4.25;3.25;;;;;22.92;34.59;101026.63;5072994;27;46228;-80
2023/04/27 08:49:41;;;;;;;;;4.25;4.25;;;;;22.93;34.10;101025.69;5077731;27;45339;-91
2023/04/27 08:52:14;;;;;;;;;6.25;5.75;;;;;22.99;34.44;101035.06;5068204;28;45324;-77
2023/04/27 08:54:40;;;;;;;;;4.75;4.00;;;;;23.03;34.51;101038.34;5075900;28;45425;-82
2023/04/27 08:57:12;;;;;;;;;4.25;4.25;;;;;23.05;34.75;101033.75;5078211;27;45781;-79
2023/04/27 08:59:43;;;;;;;;;3.00;3.00;;;;;23.10;35.04;101035.13;5059030;27;45438;-79
2023/04/27 09:02:19;;;;;;;;;5.00;3.25;;;;;23.13;35.06;101028.72;5075181;28;45271;-77
2023/04/27 09:04:44;;;;;;;;;5.25;3.25;;;;;23.19;35.03;101030.06;5075474;27;45374;-74
2023/04/27 09:07:14;;;;;;;;;6.50;6.50;;;;;23.21;34.99;101023.63;5084503;27;45514;-78
2023/04/27 09:09:40;;;;;;;;;7.50;3.25;;;;;23.23;34.27;101031.53;5078665;27;45645;-76
2023/04/27 09:12:19;;;;;;;;;3.25;3.00;;;;;23.26;34.46;101013.44;5074669;27;47198;-75
2023/04/27 09:14:59;;;;;;;;;3.50;3.50;;;;;23.30;34.65;101019.41;5074616;27;45611;-76
2023/04/27 09:17:29;;;;;;;;;2.00;2.00;;;;;23.33;34.81;101013.84;5068220;28;46514;-83
2023/04/27 09:20:12;;;;;;;;;4.75;4.75;;;;;23.36;34.78;101020.78;5073972;27;45488;-75
2023/04/27 09:22:44;;;;;;;;;4.50;3.50;;;;;23.40;35.06;101022.25;5071995;27;45571;-75
2023/04/27 09:25:21;;;;;;;;;2.50;2.00;;;;;23.44;34.95;101024.56;5086737;27;47181;-79
2023/04/27 09:27:46;;;;;;;;;3.50;3.50;;;;;23.46;35.08;101025.31;5083200;27;46608;-72
2023/04/27 09:30:13;;;;;;;;;3.25;3.25;;;;;23.47;35.55;101021.66;5072192;27;59689;-74
2023/04/27 09:32:38;;;;;;;;;4.00;3.00;;;;;23.50;35.42;101025.91;5074185;27;45451;-76
2023/04/27 09:35:20;;;;;;;;;3.25;3.25;;;;;23.53;35.59;101025.66;5058255;28;45377;-78
2023/04/27 09:37:47;;;;;;;;;7.00;3.00;;;;;23.57;35.61;101018.25;5081175;28;47117;-75
2023/04/27 09:40:12;;;;;;;;;7.00;3.25;;;;;23.57;35.67;101026.25;5078401;27;45441;-71
2023/04/27 09:42:38;;;;;;;;;4.75;4.00;;;;;23.59;36.14;101021.69;5081550;28;45323;-75
2023/04/27 09:45:04;;;;;;;;;3.25;3.25;;;;;23.61;36.08;101011.72;5079870;27;50107;-74
2023/04/27 09:47:29;;;;;;;;;4.50;2.00;;;;;23.64;36.13;101015.00;5079743;28;45454;-74
2023/04/27 09:49:55;;;;;;;;;3.00;3.00;;;;;23.66;35.92;101007.72;5091044;27;45399;-75
2023/04/27 09:52:20;;;;;;;;;6.00;3.50;;;;;23.66;35.84;100998.84;5063745;28;70145;-74
2023/04/27 09:54:46;;;;;;;;;5.25;3.25;;;;;23.71;35.80;101007.38;5059698;27;45488;-76
2023/04/27 09:57:22;;;;;;;;;2.25;2.25;;;;;23.70;36.38;101000.31;5063487;28;68073;-75
2023/04/27 10:00:15;;;;;;;;;3.00;2.25;;;;;23.75;36.28;101008.81;5084182;27;45831;-81
2023/04/27 10:02:47;;;;;;;;;4.00;3.00;;;;;23.79;36.18;101017.44;5073528;27;45354;-76
2023/04/27 10:05:31;;;;;;;;;6.50;3.75;;;;;23.81;35.84;101021.72;5079450;27;48119;-77
2023/04/27 10:07:56;;;;;;;;;12.50;4.75;;;;;23.78;35.71;101013.06;5062087;28;48072;-77
2023/04/27 10:10:21;;;;;;;;;5.25;5.25;;;;;23.81;35.68;101023.56;5081086;27;61619;-79
2023/04/27 10:13:00;;;;;;;;;6.50;5.75;;;;;23.76;35.57;101017.69;5081452;27;67754;-77
2023/04/27 10:15:27;;;;;;;;;6.00;4.75;;;;;23.74;35.26;101009.78;5075491;28;45522;-76
2023/04/27 10:17:53;;;;;;;;;5.50;4.00;;;;;23.73;35.51;101002.75;5079455;27;46459;-76
2023/04/27 10:20:30;;;;;;;;;7.75;3.25;;;;;23.72;35.57;100997.53;5066079;28;45739;-79
2023/04/27 10:22:55;;;;;;;;;9.00;6.75;;;;;23.67;35.31;100990.72;5058717;27;47206;-80
2023/04/27 10:25:23;;;;;;;;;7.00;7.00;;;;;23.69;35.17;100982.56;5075638;28;45492;-81
2023/04/27 10:28:01;;;;;;;;;13.25;7.75;;;;;23.64;35.89;100977.59;5077848;27;46123;-75
2023/04/27 10:30:32;;;;;;;;;49.75;41.25;;;;;23.65;35.61;100986.47;5072525;27;45394;-79
2023/04/27 10:32:58;;;;;;;;;67.75;53.75;;;;;23.63;35.78;100986.56;5069553;28;45558;-81
2023/04/27 10:35:34;;;;;;;;;68.00;56.00;;;;;23.64;35.87;100987.44;5078166;27;45270;-82
2023/04/27 10:38:16;;;;;;;;;80.75;75.50;;;;;23.63;36.05;100981.22;5076901;28;46848;-80
2023/04/27 10:40:53;;;;;;;;;90.00;86.75;;;;;23.62;35.76;100984.88;5097065;27;46379;-80
2023/04/27 10:43:23;;;;;;;;;80.25;75.00;;;;;23.58;35.87;100983.41;5048088;28;45346;-84
2023/04/27 10:45:49;;;;;;;;;81.50;75.50;;;;;23.59;36.03;100985.13;5083609;27;45361;-84
2023/04/27 10:48:14;;;;;;;;;70.75;58.75;;;;;23.56;35.87;100984.50;5078669;27;45947;-84
2023/04/27 10:50:40;;;;;;;;;71.25;56.50;;;;;23.57;36.05;100988.88;5084150;27;45402;-75
2023/04/27 10:53:06;;;;;;;;;82.50;73.50;;;;;23.57;36.03;100991.53;5073754;27;45512;-75
2023/04/27 10:55:33;;;;;;;;;104.75;97.00;;;;;23.53;36.12;100982.06;5068401;28;45437;-75
2023/04/27 10:58:00;;;;;;;;;87.00;76.25;;;;;23.52;36.49;100983.06;5071601;28;47470;-75
2023/04/27 11:00:30;;;;;;;;;92.00;86.25;;;;;23.54;36.26;100987.28;5082353;27;45392;-75
2023/04/27 11:02:57;;;;;;;;;81.25;76.75;;;;;23.54;36.32;100973.94;5059898;28;45496;-75
2023/04/27 11:05:28;;;;;;;;;80.00;74.50;;;;;23.54;36.55;100970.44;5074987;27;45402;-75
2023/04/27 11:08:13;;;;;;;;;71.75;58.75;;;;;23.52;36.77;100969.69;5084179;27;46458;-75
2023/04/27 11:10:49;;;;;;;;;66.50;52.25;;;;;23.53;36.59;100966.88;5090656;27;45710;-75
2023/04/27 11:13:22;;;;;;;;;70.00;56.50;;;;;23.51;36.73;100963.47;5074776;28;45417;-75
2023/04/27 11:15:53;;;;;;;;;67.00;52.75;;;;;23.52;36.71;100959.03;5083648;27;45572;-76
2023/04/27 11:18:20;;;;;;;;;68.00;51.25;;;;;23.52;36.69;100954.50;5084023;27;47287;-75
2023/04/27 11:20:48;;;;;;;;;64.25;50.75;;;;;23.48;36.89;100958.41;5086612;27;45812;-75